Time;durP1;ratioP1;P1;durP2;ratioP2;P2;SDS_P1;SDS_P2;PMS_P1;PMS_P2;Temp;Humidity;BMP_temperature;BMP_pressure;BME280_temperature;BME280_humidity;BME280_pressure;Samples;Min_cycle;Max_cycle;Signal;HPM_P1;HPM_P2
2023/08/07 00:01:34;;;;;;;7.43;1.40;;;16.60;99.90;;;;;;5131733;27;20081;-77
2023/08/07 00:04:20;;;;;;;5.15;1.20;;;16.50;99.90;;;;;;5113246;27;20074;-78
2023/08/07 00:07:06;;;;;;;7.70;2.00;;;16.60;99.90;;;;;;5114393;27;20055;-77
2023/08/07 00:09:53;;;;;;;6.28;1.33;;;16.60;99.90;;;;;;5113498;27;20058;-77
2023/08/07 00:12:39;;;;;;;4.80;1.50;;;16.50;99.90;;;;;;5114512;27;20123;-78
2023/08/07 00:15:25;;;;;;;4.90;1.40;;;16.50;99.90;;;;;;5117750;27;20150;-76
2023/08/07 00:18:11;;;;;;;5.30;1.35;;;16.50;99.90;;;;;;5101581;27;20054;-78
2023/08/07 00:20:57;;;;;;;3.75;1.35;;;16.50;99.90;;;;;;5112597;27;20051;-78
2023/08/07 00:23:43;;;;;;;4.25;1.10;;;16.50;99.90;;;;;;5131535;27;20498;-78
2023/08/07 00:26:31;;;;;;;3.88;1.25;;;16.40;99.90;;;;;;5114040;27;20051;-77
2023/08/07 00:29:18;;;;;;;3.50;1.13;;;16.50;99.90;;;;;;5133720;27;20413;-77
2023/08/07 00:32:04;;;;;;;3.00;1.00;;;16.40;99.90;;;;;;5134189;27;20054;-77
2023/08/07 00:34:50;;;;;;;4.57;1.20;;;16.40;99.90;;;;;;5132595;27;20050;-77
2023/08/07 00:37:37;;;;;;;4.47;1.40;;;16.40;99.90;;;;;;5113205;27;20043;-78
2023/08/07 00:40:23;;;;;;;4.25;1.23;;;16.40;99.90;;;;;;5133005;27;20147;-78
2023/08/07 00:43:09;;;;;;;3.08;1.00;;;16.50;99.90;;;;;;5131889;27;20047;-78
2023/08/07 00:45:55;;;;;;;4.30;1.17;;;16.40;99.90;;;;;;5099547;27;20058;-78
2023/08/07 00:48:41;;;;;;;4.05;1.30;;;16.40;99.90;;;;;;5098499;27;20115;-78
2023/08/07 00:51:27;;;;;;;3.05;0.90;;;16.40;99.90;;;;;;5130516;27;20050;-78
2023/08/07 00:54:17;;;;;;;5.53;1.48;;;16.40;99.90;;;;;;5113956;27;20051;-78
2023/08/07 00:57:15;;;;;;;9.43;1.40;;;16.40;99.90;;;;;;5098097;27;20046;-77
2023/08/07 01:00:02;;;;;;;3.75;1.15;;;16.40;99.90;;;;;;5099533;27;20073;-77
2023/08/07 01:02:50;;;;;;;4.78;1.60;;;16.40;99.90;;;;;;5130451;27;20072;-77
2023/08/07 01:05:37;;;;;;;5.40;1.23;;;16.30;99.90;;;;;;5131751;27;20039;-78
2023/08/07 01:08:24;;;;;;;5.50;2.40;;;16.30;99.90;;;;;;5112310;27;20417;-78
2023/08/07 01:11:22;;;;;;;3.92;1.45;;;16.30;99.90;;;;;;5115512;27;20047;-78
2023/08/07 01:14:17;;;;;;;5.90;1.30;;;16.30;99.90;;;;;;5130991;27;20043;-78
2023/08/07 01:17:10;;;;;;;3.85;1.25;;;16.30;99.90;;;;;;5097348;27;20058;-79
2023/08/07 01:19:57;;;;;;;4.38;1.10;;;16.30;99.90;;;;;;5113126;27;20556;-79
2023/08/07 01:22:43;;;;;;;5.00;1.30;;;16.40;99.90;;;;;;5113156;27;20039;-79
2023/08/07 01:25:30;;;;;;;4.82;1.10;;;16.40;99.90;;;;;;5131960;27;20125;-80
2023/08/07 01:28:45;;;;;;;3.03;1.20;;;16.40;99.90;;;;;;5131414;27;20058;-78
2023/08/07 01:31:34;;;;;;;6.50;1.33;;;16.40;99.90;;;;;;5109318;27;20043;-79
2023/08/07 01:34:23;;;;;;;4.47;1.40;;;16.40;99.90;;;;;;5110962;27;20559;-79
2023/08/07 01:37:12;;;;;;;4.10;1.10;;;16.40;99.90;;;;;;5131158;27;20084;-78
2023/08/07 01:40:01;;;;;;;3.53;1.27;;;16.40;99.90;;;;;;5111279;27;20051;-79
2023/08/07 01:42:48;;;;;;;3.95;1.58;;;16.40;99.90;;;;;;5131587;27;20050;-79
2023/08/07 01:45:34;;;;;;;4.28;1.20;;;16.40;99.90;;;;;;5131314;27;20513;-78
2023/08/07 01:48:20;;;;;;;2.05;0.93;;;16.40;99.90;;;;;;5130340;27;20112;-78
2023/08/07 01:51:06;;;;;;;3.90;1.27;;;16.40;99.90;;;;;;5098367;27;20047;-79
2023/08/07 01:53:52;;;;;;;5.57;1.38;;;16.50;99.90;;;;;;5115916;27;20051;-79
2023/08/07 01:56:38;;;;;;;3.30;1.10;;;16.40;99.90;;;;;;5131037;27;20125;-79
2023/08/07 01:59:24;;;;;;;4.78;1.38;;;16.50;99.90;;;;;;5113093;27;20069;-78
2023/08/07 02:02:10;;;;;;;9.00;2.35;;;16.50;99.90;;;;;;5129786;27;20047;-78
2023/08/07 02:04:56;;;;;;;4.93;1.85;;;16.50;99.90;;;;;;5111091;28;20054;-78
2023/08/07 02:07:43;;;;;;;7.25;2.45;;;16.60;99.90;;;;;;5114984;27;20104;-79
2023/08/07 02:10:29;;;;;;;8.23;1.27;;;16.60;99.90;;;;;;5112931;28;20047;-78
2023/08/07 02:13:15;;;;;;;5.47;1.50;;;16.60;99.90;;;;;;5130769;27;20043;-78
2023/08/07 02:16:01;;;;;;;10.32;1.52;;;16.60;99.90;;;;;;5131295;28;20398;-78
2023/08/07 02:18:47;;;;;;;9.88;1.80;;;16.60;99.90;;;;;;5098019;28;20078;-78
2023/08/07 02:21:33;;;;;;;12.20;2.05;;;16.60;99.90;;;;;;5130040;28;20050;-78
2023/08/07 02:24:20;;;;;;;7.85;1.25;;;16.60;99.90;;;;;;5112029;28;20047;-79
2023/08/07 02:27:06;;;;;;;8.75;1.80;;;16.60;99.90;;;;;;5111334;28;20055;-78
2023/08/07 02:29:52;;;;;;;5.18;1.90;;;16.50;99.90;;;;;;5113417;28;20082;-78
2023/08/07 02:32:41;;;;;;;7.00;1.67;;;16.50;99.90;;;;;;5129983;28;20043;-79
2023/08/07 02:35:27;;;;;;;6.35;1.48;;;16.50;99.90;;;;;;5129116;28;20095;-78
2023/08/07 02:38:13;;;;;;;8.77;2.10;;;16.40;99.90;;;;;;5131310;28;20063;-78
2023/08/07 02:40:59;;;;;;;13.88;2.20;;;16.40;99.90;;;;;;5098431;28;20100;-78
2023/08/07 02:43:45;;;;;;;12.60;2.40;;;16.40;99.90;;;;;;5129069;28;20139;-78
2023/08/07 02:46:31;;;;;;;8.43;2.30;;;16.40;99.90;;;;;;5134353;27;20115;-78
2023/08/07 02:49:17;;;;;;;7.45;2.05;;;16.40;99.90;;;;;;5115064;27;20448;-79
2023/08/07 02:52:04;;;;;;;10.43;2.60;;;16.50;99.90;;;;;;5115937;27;20233;-79
2023/08/07 02:54:50;;;;;;;12.73;2.38;;;16.50;99.90;;;;;;5134397;27;20051;-78
2023/08/07 02:57:36;;;;;;;14.50;2.53;;;16.50;99.90;;;;;;5114693;27;20141;-79
2023/08/07 03:00:22;;;;;;;10.77;2.50;;;16.50;99.90;;;;;;5133374;27;20508;-77
2023/08/07 03:03:08;;;;;;;18.60;3.75;;;16.50;99.90;;;;;;5133363;27;20099;-78
2023/08/07 03:05:54;;;;;;;14.50;3.53;;;16.60;99.90;;;;;;5135261;27;20051;-78
2023/08/07 03:08:40;;;;;;;17.88;3.75;;;16.50;99.90;;;;;;5132757;27;20108;-78
2023/08/07 03:11:26;;;;;;;20.85;3.67;;;16.50;99.90;;;;;;5114645;27;20047;-78
2023/08/07 03:14:12;;;;;;;13.35;3.40;;;16.50;99.90;;;;;;5115969;27;20043;-78
2023/08/07 03:16:59;;;;;;;15.68;3.50;;;16.50;99.90;;;;;;5133013;27;20525;-79
2023/08/07 03:19:45;;;;;;;18.75;3.08;;;16.50;99.90;;;;;;5101214;27;20104;-79
2023/08/07 03:22:31;;;;;;;15.77;3.83;;;16.50;99.90;;;;;;5133764;27;20116;-78
2023/08/07 03:25:18;;;;;;;18.92;2.83;;;16.50;99.90;;;;;;5116225;27;20100;-79
2023/08/07 03:28:04;;;;;;;16.63;3.17;;;16.40;99.90;;;;;;5132606;27;20131;-79
2023/08/07 03:30:50;;;;;;;15.05;3.15;;;16.40;99.90;;;;;;5132470;27;20494;-79
2023/08/07 03:33:36;;;;;;;17.02;3.55;;;16.40;99.90;;;;;;5114088;27;20055;-79
2023/08/07 03:36:22;;;;;;;17.30;2.85;;;16.40;99.90;;;;;;5113975;27;20039;-79
2023/08/07 03:39:10;;;;;;;13.32;3.13;;;16.40;99.90;;;;;;5115141;27;20145;-79
2023/08/07 03:41:56;;;;;;;11.85;2.88;;;16.30;99.90;;;;;;5118697;27;20117;-78
2023/08/07 03:44:42;;;;;;;12.00;2.75;;;16.30;99.90;;;;;;5113989;27;20483;-79
2023/08/07 03:47:28;;;;;;;13.20;3.35;;;16.30;99.90;;;;;;5132748;27;20047;-79
2023/08/07 03:50:14;;;;;;;15.25;3.10;;;16.30;99.90;;;;;;5101136;27;20047;-78
2023/08/07 03:53:01;;;;;;;19.08;3.88;;;16.40;99.90;;;;;;5132813;27;20146;-78
2023/08/07 03:55:51;;;;;;;14.48;4.35;;;16.30;99.90;;;;;;5132803;27;20054;-78
2023/08/07 03:58:37;;;;;;;10.73;3.03;;;16.30;99.90;;;;;;5115049;27;20058;-77
2023/08/07 04:01:23;;;;;;;19.63;3.17;;;16.30;99.90;;;;;;5101049;27;20135;-78
2023/08/07 04:04:10;;;;;;;17.70;3.10;;;16.30;99.90;;;;;;5133427;27;20043;-77
2023/08/07 04:06:56;;;;;;;18.05;4.32;;;16.30;99.90;;;;;;5114834;27;20409;-78
2023/08/07 04:09:42;;;;;;;16.85;3.55;;;16.30;99.90;;;;;;5131950;27;20443;-78
2023/08/07 04:12:28;;;;;;;29.90;4.55;;;16.30;99.90;;;;;;5099653;27;20543;-78
2023/08/07 04:15:14;;;;;;;29.08;4.85;;;16.20;99.90;;;;;;5113283;27;20047;-77
2023/08/07 04:18:00;;;;;;;21.50;4.00;;;16.20;99.90;;;;;;5113560;27;20062;-77
2023/08/07 04:20:52;;;;;;;13.95;3.65;;;16.10;99.90;;;;;;5117355;27;20072;-78
2023/08/07 04:23:38;;;;;;;18.98;3.80;;;16.00;99.90;;;;;;5132268;27;20055;-77
2023/08/07 04:26:24;;;;;;;17.10;3.67;;;15.90;99.90;;;;;;5100385;27;20035;-78
2023/08/07 04:29:10;;;;;;;20.85;4.90;;;15.90;99.90;;;;;;5113784;27;20050;-78
2023/08/07 04:31:56;;;;;;;14.70;3.70;;;15.90;99.90;;;;;;5114611;27;20138;-77
2023/08/07 04:34:42;;;;;;;15.27;3.45;;;15.80;99.90;;;;;;5132854;27;20051;-77
2023/08/07 04:37:30;;;;;;;21.30;3.75;;;15.80;99.90;;;;;;5132372;27;20054;-76
2023/08/07 04:40:16;;;;;;;13.45;4.15;;;15.80;99.90;;;;;;5100034;27;20058;-76
2023/08/07 04:43:02;;;;;;;15.13;3.15;;;15.80;99.90;;;;;;5130979;27;20054;-77
2023/08/07 04:45:48;;;;;;;15.90;3.80;;;15.80;99.90;;;;;;5132716;27;20043;-76
2023/08/07 04:48:35;;;;;;;10.65;3.45;;;15.80;99.90;;;;;;5113487;27;20464;-76
2023/08/07 04:51:21;;;;;;;17.10;3.67;;;15.80;99.90;;;;;;5131613;27;20058;-77
2023/08/07 04:54:08;;;;;;;24.73;4.05;;;15.90;99.90;;;;;;5131363;27;20049;-78
2023/08/07 04:56:54;;;;;;;17.30;5.75;;;15.90;99.90;;;;;;5117416;27;20054;-77
2023/08/07 04:59:40;;;;;;;15.75;3.33;;;15.90;99.90;;;;;;5130511;27;20046;-78
2023/08/07 05:02:26;;;;;;;18.48;4.25;;;16.00;99.90;;;;;;5132280;27;20094;-77
2023/08/07 05:05:14;;;;;;;15.32;3.08;;;16.00;99.90;;;;;;5099404;27;20104;-77
2023/08/07 05:08:00;;;;;;;17.27;3.65;;;16.10;99.90;;;;;;5114805;28;20134;-78
2023/08/07 05:10:46;;;;;;;13.55;3.33;;;16.10;99.90;;;;;;5130779;27;20053;-78
2023/08/07 05:13:32;;;;;;;21.02;4.18;;;16.10;99.90;;;;;;5085813;27;20143;-77
2023/08/07 05:16:18;;;;;;;17.27;3.10;;;16.10;99.90;;;;;;5115925;27;20047;-78
2023/08/07 05:19:05;;;;;;;14.90;2.95;;;16.10;99.90;;;;;;5130233;27;20130;-78
2023/08/07 05:21:51;;;;;;;13.35;2.85;;;16.10;99.90;;;;;;5131628;27;20087;-78
2023/08/07 05:24:40;;;;;;;19.20;3.70;;;16.10;99.90;;;;;;5098787;27;20047;-77
2023/08/07 05:27:26;;;;;;;15.23;3.13;;;16.10;99.90;;;;;;5112811;27;20045;-78
2023/08/07 05:30:13;;;;;;;12.93;2.72;;;16.10;99.90;;;;;;5113014;27;20487;-77
2023/08/07 05:32:59;;;;;;;14.27;2.72;;;16.20;99.90;;;;;;5131137;27;20051;-77
2023/08/07 05:35:45;;;;;;;15.00;3.22;;;16.20;99.90;;;;;;5131639;27;20047;-78
2023/08/07 05:38:32;;;;;;;15.50;2.72;;;16.20;99.90;;;;;;5130933;27;20048;-77
2023/08/07 05:41:18;;;;;;;14.20;2.60;;;16.20;99.90;;;;;;5111902;28;20043;-77
2023/08/07 05:44:05;;;;;;;10.77;2.83;;;16.20;99.90;;;;;;5132070;27;20054;-78
2023/08/07 05:46:51;;;;;;;13.13;3.50;;;16.20;99.90;;;;;;5112771;27;20054;-77
2023/08/07 05:49:37;;;;;;;17.55;2.42;;;16.20;99.90;;;;;;5130983;27;20142;-77
2023/08/07 05:52:24;;;;;;;15.43;3.17;;;16.20;99.90;;;;;;5085411;27;20047;-77
2023/08/07 05:55:10;;;;;;;9.88;2.20;;;16.10;99.90;;;;;;5114736;27;20047;-79
2023/08/07 05:57:56;;;;;;;12.82;2.47;;;16.10;99.90;;;;;;5111618;27;20154;-77
2023/08/07 06:00:42;;;;;;;10.45;2.20;;;16.10;99.90;;;;;;5111694;27;20055;-78
2023/08/07 06:03:28;;;;;;;9.68;2.50;;;16.20;99.90;;;;;;5129435;27;20658;-77
2023/08/07 06:06:14;;;;;;;13.13;2.95;;;16.30;99.90;;;;;;5130405;27;20078;-78
2023/08/07 06:09:02;;;;;;;17.35;3.45;;;16.20;99.90;;;;;;5130868;27;20104;-77
2023/08/07 06:11:48;;;;;;;9.70;2.88;;;16.00;99.90;;;;;;5130278;27;20043;-78
2023/08/07 06:14:34;;;;;;;13.88;2.92;;;15.90;99.90;;;;;;5129580;27;20391;-78
2023/08/07 06:17:20;;;;;;;10.73;2.97;;;15.80;99.90;;;;;;5112757;28;20100;-78
2023/08/07 06:20:09;;;;;;;16.75;2.72;;;15.90;99.90;;;;;;5115983;28;20051;-78
2023/08/07 06:22:55;;;;;;;18.05;3.22;;;15.90;99.90;;;;;;5098881;28;20058;-78
2023/08/07 06:25:41;;;;;;;8.45;2.55;;;15.90;99.90;;;;;;5112769;28;20047;-78
2023/08/07 06:28:27;;;;;;;10.55;2.53;;;15.90;99.90;;;;;;5131276;28;20138;-79
2023/08/07 06:31:15;;;;;;;9.25;2.40;;;15.90;99.90;;;;;;5112848;28;20057;-77
2023/08/07 06:34:01;;;;;;;15.50;3.20;;;15.80;99.90;;;;;;5098060;28;20102;-78
2023/08/07 06:36:47;;;;;;;11.43;3.05;;;15.70;99.90;;;;;;5129548;28;20528;-77
2023/08/07 06:39:33;;;;;;;15.15;2.97;;;15.60;99.90;;;;;;5111946;28;20100;-77
2023/08/07 06:42:19;;;;;;;14.18;2.88;;;15.70;99.90;;;;;;5112073;28;20044;-77
2023/08/07 06:45:06;;;;;;;13.70;3.08;;;15.60;99.90;;;;;;5129786;28;20086;-78
2023/08/07 06:47:52;;;;;;;13.60;3.88;;;15.60;99.90;;;;;;5111664;28;20505;-77
2023/08/07 06:50:38;;;;;;;22.08;3.22;;;15.70;99.90;;;;;;5130476;28;20126;-78
2023/08/07 06:53:24;;;;;;;12.68;3.13;;;15.70;99.90;;;;;;5128723;28;20051;-78
2023/08/07 06:56:10;;;;;;;17.88;2.85;;;15.70;99.90;;;;;;5097312;28;20051;-77
2023/08/07 06:58:56;;;;;;;10.80;2.33;;;15.70;99.90;;;;;;5130763;28;20055;-77
2023/08/07 07:01:42;;;;;;;10.73;2.42;;;15.70;99.90;;;;;;5115298;28;20799;-77
2023/08/07 07:04:29;;;;;;;14.40;2.70;;;15.70;99.90;;;;;;5148807;27;20099;-78
2023/08/07 07:07:15;;;;;;;13.05;3.83;;;15.80;99.90;;;;;;5127982;28;20062;-77
2023/08/07 07:10:01;;;;;;;14.60;2.95;;;15.90;99.90;;;;;;5129551;28;20047;-78
2023/08/07 07:12:48;;;;;;;11.32;3.03;;;16.10;99.90;;;;;;5111195;28;20512;-77
2023/08/07 07:15:34;;;;;;;11.82;2.75;;;16.20;99.90;;;;;;5098413;28;20153;-78
2023/08/07 07:18:20;;;;;;;12.52;2.53;;;16.30;99.90;;;;;;5128692;28;20078;-78
2023/08/07 07:21:07;;;;;;;10.63;2.85;;;16.40;99.90;;;;;;5115599;28;20084;-78
2023/08/07 07:23:53;;;;;;;12.85;3.25;;;16.50;99.90;;;;;;5129797;28;20053;-77
2023/08/07 07:26:39;;;;;;;12.13;2.60;;;16.50;99.90;;;;;;5129538;28;20379;-79
2023/08/07 07:29:25;;;;;;;13.25;2.92;;;16.50;99.90;;;;;;5130534;28;20062;-79
2023/08/07 07:32:11;;;;;;;18.92;3.65;;;16.40;99.90;;;;;;5116245;27;20116;-77
2023/08/07 07:34:57;;;;;;;15.07;2.92;;;16.20;99.90;;;;;;5134418;27;20086;-79
2023/08/07 07:37:43;;;;;;;9.20;2.15;;;16.00;99.90;;;;;;5133460;27;20066;-78
2023/08/07 07:40:30;;;;;;;11.57;2.88;;;15.90;99.90;;;;;;5117863;27;20480;-78
2023/08/07 07:43:16;;;;;;;16.15;3.38;;;15.90;99.90;;;;;;5134656;27;20047;-77
2023/08/07 07:46:02;;;;;;;14.73;2.70;;;16.10;99.90;;;;;;5133186;27;20051;-78
2023/08/07 07:48:48;;;;;;;11.50;2.47;;;16.10;99.90;;;;;;5126678;27;20108;-78
2023/08/07 07:51:35;;;;;;;13.32;2.55;;;16.20;99.90;;;;;;5133702;27;20055;-79
2023/08/07 07:54:21;;;;;;;15.63;3.25;;;16.40;99.90;;;;;;5131813;27;20051;-77
2023/08/07 07:57:07;;;;;;;12.43;2.72;;;16.70;99.90;;;;;;5133310;27;20521;-78
2023/08/07 07:59:53;;;;;;;20.08;2.55;;;16.90;99.90;;;;;;5131816;27;20051;-79
2023/08/07 08:02:43;;;;;;;13.35;3.30;;;17.30;99.90;;;;;;5132864;27;20047;-78
2023/08/07 08:05:29;;;;;;;12.35;2.58;;;17.40;99.90;;;;;;5114101;27;20055;-78
2023/08/07 08:08:15;;;;;;;9.07;3.13;;;17.50;99.90;;;;;;5132131;27;20055;-79
2023/08/07 08:11:01;;;;;;;10.52;2.10;;;17.60;99.90;;;;;;5131849;27;20051;-79
2023/08/07 08:13:47;;;;;;;13.77;3.40;;;17.80;99.90;;;;;;5132194;27;20070;-78
2023/08/07 08:16:33;;;;;;;9.25;2.50;;;17.90;99.90;;;;;;5131475;27;20142;-79
2023/08/07 08:19:19;;;;;;;12.02;3.15;;;18.00;99.90;;;;;;5113713;27;20104;-78
2023/08/07 08:22:06;;;;;;;11.98;2.97;;;17.90;99.90;;;;;;5131590;27;20051;-79
2023/08/07 08:24:52;;;;;;;10.93;3.25;;;18.20;99.90;;;;;;5131560;27;20415;-78
2023/08/07 08:27:39;;;;;;;12.40;2.38;;;18.30;99.90;;;;;;5131588;27;20065;-78
2023/08/07 08:30:25;;;;;;;11.35;2.60;;;18.40;99.90;;;;;;5132360;27;20039;-79
2023/08/07 08:33:14;;;;;;;10.32;2.88;;;18.60;99.90;;;;;;5133092;27;20055;-78
2023/08/07 08:36:00;;;;;;;14.27;2.45;;;18.60;99.90;;;;;;5132503;27;20043;-78
2023/08/07 08:38:48;;;;;;;9.45;2.28;;;18.70;99.90;;;;;;5114230;27;20047;-78
2023/08/07 08:41:34;;;;;;;9.82;3.28;;;18.80;99.90;;;;;;5113614;27;20046;-78
2023/08/07 08:44:24;;;;;;;9.63;2.58;;;18.70;99.90;;;;;;5131715;27;20071;-77
2023/08/07 08:47:11;;;;;;;9.85;2.03;;;18.80;99.80;;;;;;5132103;27;20111;-78
2023/08/07 08:50:11;;;;;;;17.48;3.55;;;18.90;99.90;;;;;;5113706;27;20486;-78
2023/08/07 08:52:58;;;;;;;11.77;2.92;;;19.00;99.70;;;;;;5099894;27;20402;-78
2023/08/07 08:55:47;;;;;;;10.55;2.58;;;19.30;99.60;;;;;;5085486;27;20465;-78
2023/08/07 08:58:34;;;;;;;10.70;3.08;;;19.50;99.70;;;;;;5112831;27;20059;-78
2023/08/07 09:01:21;;;;;;;6.75;2.40;;;19.50;99.50;;;;;;5132004;27;20448;-78
2023/08/07 09:04:09;;;;;;;13.00;2.10;;;19.50;98.90;;;;;;5131744;27;20043;-77
2023/08/07 09:06:56;;;;;;;11.65;2.50;;;19.40;98.30;;;;;;5131230;27;20058;-77
2023/08/07 09:09:44;;;;;;;13.40;2.70;;;19.70;98.30;;;;;;5132349;27;20054;-79
2023/08/07 09:12:33;;;;;;;9.85;1.92;;;19.50;98.10;;;;;;5131898;27;20081;-77
2023/08/07 09:15:21;;;;;;;9.75;2.47;;;19.60;97.90;;;;;;5099383;27;20047;-78
2023/08/07 09:18:09;;;;;;;9.00;1.90;;;19.70;97.30;;;;;;5130089;27;20053;-79
2023/08/07 09:20:57;;;;;;;10.77;2.47;;;19.80;96.70;;;;;;5130806;27;20092;-78
2023/08/07 09:23:43;;;;;;;7.55;2.22;;;19.80;96.70;;;;;;5112374;27;20517;-77
2023/08/07 09:26:33;;;;;;;12.15;2.90;;;19.40;96.40;;;;;;5131745;27;20047;-77
2023/08/07 09:29:22;;;;;;;7.45;2.60;;;19.20;97.20;;;;;;5129834;27;20490;-78
2023/08/07 09:32:09;;;;;;;12.48;2.63;;;19.00;97.30;;;;;;5111788;27;20047;-77
2023/08/07 09:34:55;;;;;;;9.18;2.38;;;18.70;98.00;;;;;;5130462;27;20047;-78
2023/08/07 09:37:43;;;;;;;8.25;2.33;;;18.50;98.30;;;;;;5131784;27;20047;-78
2023/08/07 09:40:30;;;;;;;15.88;2.60;;;18.30;98.20;;;;;;5111536;27;20077;-77
2023/08/07 09:43:22;;;;;;;8.40;2.45;;;18.30;98.60;;;;;;5130490;27;20498;-78
2023/08/07 09:46:09;;;;;;;10.40;3.08;;;18.30;98.10;;;;;;5111593;27;20043;-76
2023/08/07 09:48:59;;;;;;;9.50;2.20;;;18.40;98.80;;;;;;5111569;27;20051;-77
2023/08/07 09:51:47;;;;;;;10.45;2.30;;;18.40;99.20;;;;;;5130547;27;20039;-79
2023/08/07 09:54:33;;;;;;;9.27;2.35;;;18.50;99.60;;;;;;5129483;27;20055;-78
2023/08/07 09:57:20;;;;;;;16.05;2.72;;;18.80;99.60;;;;;;5129707;27;20043;-77
2023/08/07 10:00:11;;;;;;;9.57;2.70;;;19.30;99.00;;;;;;5130544;27;20082;-77
2023/08/07 10:02:57;;;;;;;12.15;2.50;;;19.10;98.20;;;;;;5129812;27;20533;-77
2023/08/07 10:05:43;;;;;;;10.73;3.17;;;19.10;98.30;;;;;;5130104;27;20605;-78
2023/08/07 10:08:30;;;;;;;12.00;2.28;;;19.30;98.80;;;;;;5129491;27;20427;-77
2023/08/07 10:11:17;;;;;;;14.38;2.70;;;19.30;98.30;;;;;;5129394;27;20540;-77
2023/08/07 10:14:03;;;;;;;14.15;2.47;;;19.00;97.80;;;;;;5130448;27;20051;-77
2023/08/07 10:16:51;;;;;;;12.65;2.25;;;18.70;97.60;;;;;;5129040;27;20089;-77
2023/08/07 10:19:38;;;;;;;9.85;2.15;;;19.10;97.20;;;;;;5114954;28;20039;-78
2023/08/07 10:22:27;;;;;;;12.50;2.88;;;19.60;97.00;;;;;;5130286;28;20051;-77
2023/08/07 10:25:13;;;;;;;7.35;1.77;;;19.70;96.30;;;;;;5129309;28;20047;-77
2023/08/07 10:28:01;;;;;;;9.07;2.10;;;19.90;95.50;;;;;;5111366;28;20474;-78
2023/08/07 10:30:48;;;;;;;5.47;1.70;;;20.00;95.20;;;;;;5110837;28;20055;-77
2023/08/07 10:33:35;;;;;;;9.18;2.28;;;20.20;95.00;;;;;;5129283;28;20047;-77
2023/08/07 10:36:21;;;;;;;8.80;1.50;;;20.30;95.60;;;;;;5130325;28;20054;-79
2023/08/07 10:39:09;;;;;;;11.13;2.67;;;20.50;95.40;;;;;;5128666;28;20083;-79
2023/08/07 10:41:55;;;;;;;12.27;2.25;;;20.30;95.50;;;;;;5111641;28;20043;-78
2023/08/07 10:44:49;;;;;;;12.05;2.63;;;20.20;95.80;;;;;;5097976;28;20494;-78
2023/08/07 10:47:35;;;;;;;14.73;2.05;;;20.10;95.70;;;;;;5129693;28;20096;-78
2023/08/07 10:50:28;;;;;;;10.80;2.45;;;19.90;97.00;;;;;;5130239;28;20126;-77
2023/08/07 10:53:27;;;;;;;11.45;2.45;;;19.70;97.30;;;;;;5129740;28;20508;-78
2023/08/07 10:56:17;;;;;;;11.93;2.20;;;19.30;98.20;;;;;;5129962;28;20054;-77
2023/08/07 10:59:12;;;;;;;9.85;2.55;;;18.80;99.10;;;;;;5110612;28;20058;-77
2023/08/07 11:01:58;;;;;;;14.85;2.63;;;18.60;99.90;;;;;;5129922;28;20126;-78
2023/08/07 11:04:45;;;;;;;10.90;2.05;;;18.60;99.90;;;;;;5114988;28;20058;-78
2023/08/07 11:07:31;;;;;;;5.15;1.58;;;18.50;99.90;;;;;;5132814;27;20055;-77
2023/08/07 11:10:17;;;;;;;14.60;2.55;;;18.40;99.70;;;;;;5114722;27;20079;-78
2023/08/07 11:13:03;;;;;;;5.03;1.50;;;18.40;99.90;;;;;;5133726;27;20418;-79
2023/08/07 11:15:49;;;;;;;7.47;1.27;;;18.30;99.90;;;;;;5134046;27;20498;-77
2023/08/07 11:18:40;;;;;;;10.43;2.47;;;18.50;99.90;;;;;;5132405;27;20118;-77
2023/08/07 11:21:26;;;;;;;7.55;2.08;;;18.30;99.90;;;;;;5114940;27;20065;-79
2023/08/07 11:24:14;;;;;;;6.43;1.90;;;18.60;99.90;;;;;;5133475;27;20104;-79
2023/08/07 11:27:00;;;;;;;7.78;1.80;;;18.80;99.90;;;;;;5133322;27;20050;-78
2023/08/07 11:29:48;;;;;;;11.50;2.30;;;18.90;99.90;;;;;;5115687;27;20055;-78
2023/08/07 11:32:36;;;;;;;16.85;3.05;;;19.10;99.90;;;;;;5133617;27;20082;-78
2023/08/07 11:35:23;;;;;;;11.20;2.30;;;19.30;99.90;;;;;;5131907;27;20047;-76
2023/08/07 11:38:09;;;;;;;8.10;1.58;;;19.40;99.90;;;;;;5115734;27;20051;-76
2023/08/07 11:40:58;;;;;;;6.03;1.63;;;19.20;99.90;;;;;;5133735;27;20039;-76
2023/08/07 11:43:44;;;;;;;10.25;1.75;;;18.90;99.90;;;;;;5131841;27;20498;-77
2023/08/07 11:46:30;;;;;;;5.15;1.45;;;18.90;99.90;;;;;;5100296;27;20051;-76
2023/08/07 11:49:17;;;;;;;10.30;2.35;;;18.80;99.90;;;;;;5115094;27;20047;-77
2023/08/07 11:52:04;;;;;;;9.20;1.90;;;18.90;99.90;;;;;;5101561;27;20055;-78
2023/08/07 11:54:52;;;;;;;9.07;2.08;;;19.30;99.90;;;;;;5134256;27;20066;-78
2023/08/07 11:57:39;;;;;;;9.77;2.38;;;19.70;99.90;;;;;;5132000;27;20677;-78
2023/08/07 12:00:28;;;;;;;7.43;2.05;;;19.90;99.90;;;;;;5132287;27;20134;-78
2023/08/07 12:03:28;;;;;;;8.07;2.10;;;20.10;99.90;;;;;;5132228;27;20129;-78
2023/08/07 12:06:14;;;;;;;13.02;2.60;;;20.00;99.90;;;;;;5116799;27;20047;-77
2023/08/07 12:09:01;;;;;;;9.95;2.25;;;20.00;99.90;;;;;;5117455;27;20089;-77
2023/08/07 12:11:47;;;;;;;13.80;2.58;;;20.40;99.90;;;;;;5113491;27;20138;-77
2023/08/07 12:14:33;;;;;;;5.68;1.85;;;20.60;99.80;;;;;;5114053;27;20054;-77
2023/08/07 12:17:19;;;;;;;10.25;1.70;;;20.90;98.80;;;;;;5113225;27;20129;-78
2023/08/07 12:20:10;;;;;;;9.30;1.92;;;21.10;97.90;;;;;;5113310;27;20133;-77
2023/08/07 12:22:56;;;;;;;10.35;2.58;;;20.80;97.30;;;;;;5132823;27;20062;-79
2023/08/07 12:25:43;;;;;;;13.95;2.40;;;20.70;97.70;;;;;;5113715;27;20046;-77
2023/08/07 12:28:29;;;;;;;11.52;2.92;;;20.90;98.90;;;;;;5133111;27;20513;-77
2023/08/07 12:31:17;;;;;;;13.43;2.20;;;21.10;99.10;;;;;;5132556;27;20047;-78
2023/08/07 12:34:03;;;;;;;12.55;2.80;;;21.50;98.70;;;;;;5114491;27;20494;-78
2023/08/07 12:36:49;;;;;;;8.48;2.45;;;21.40;97.30;;;;;;5132274;27;20090;-77
2023/08/07 12:39:35;;;;;;;9.52;2.70;;;21.70;97.50;;;;;;5132195;27;20054;-77
2023/08/07 12:42:21;;;;;;;8.40;1.92;;;21.80;96.60;;;;;;5114079;27;20051;-78
2023/08/07 12:45:08;;;;;;;11.48;2.22;;;21.80;97.00;;;;;;5112671;27;20043;-77
2023/08/07 12:47:54;;;;;;;15.18;3.15;;;21.40;97.10;;;;;;5132469;27;20138;-77
2023/08/07 12:50:40;;;;;;;9.48;2.15;;;21.10;97.10;;;;;;5132031;27;20053;-77
2023/08/07 12:53:26;;;;;;;9.90;2.28;;;20.80;97.70;;;;;;5131303;27;20074;-78
2023/08/07 12:56:12;;;;;;;9.65;2.70;;;20.40;97.90;;;;;;5130717;27;20093;-77
2023/08/07 12:58:59;;;;;;;7.20;2.15;;;20.20;99.20;;;;;;5132228;27;20050;-77
2023/08/07 13:01:45;;;;;;;7.72;2.60;;;20.20;98.10;;;;;;5112669;27;20043;-78
2023/08/07 13:04:33;;;;;;;9.07;2.10;;;20.40;97.80;;;;;;5131711;27;20051;-78
2023/08/07 13:07:19;;;;;;;6.88;1.88;;;20.30;97.60;;;;;;5122393;27;20051;-77
2023/08/07 13:10:06;;;;;;;8.05;2.33;;;20.60;98.00;;;;;;5132253;27;20043;-78
2023/08/07 13:12:53;;;;;;;12.00;2.97;;;21.00;97.70;;;;;;5112993;27;20139;-77
2023/08/07 13:15:39;;;;;;;11.43;3.55;;;21.00;97.10;;;;;;5131889;27;20131;-77
2023/08/07 13:18:25;;;;;;;6.72;2.45;;;20.50;97.40;;;;;;5112929;27;20158;-77
2023/08/07 13:21:11;;;;;;;14.43;3.67;;;20.40;98.00;;;;;;5098037;27;20108;-78
2023/08/07 13:23:57;;;;;;;9.80;3.22;;;20.40;98.40;;;;;;5150431;27;20043;-77
2023/08/07 13:26:46;;;;;;;12.25;2.78;;;20.20;98.60;;;;;;5150845;27;20159;-77
2023/08/07 13:29:32;;;;;;;13.20;2.70;;;20.10;98.80;;;;;;5150568;27;20046;-79
2023/08/07 13:32:20;;;;;;;15.73;2.88;;;20.20;97.90;;;;;;5150686;27;20086;-77
2023/08/07 13:35:06;;;;;;;8.90;2.53;;;20.10;98.30;;;;;;5132135;27;20062;-78
2023/08/07 13:37:52;;;;;;;12.20;3.00;;;20.00;98.20;;;;;;5150789;27;20050;-77
2023/08/07 13:40:39;;;;;;;8.95;1.80;;;19.90;98.60;;;;;;5151056;27;20111;-78
2023/08/07 13:43:25;;;;;;;8.50;2.15;;;19.90;99.00;;;;;;5151057;27;20410;-77
2023/08/07 13:46:11;;;;;;;8.95;2.88;;;19.70;98.30;;;;;;5151031;27;20459;-76
2023/08/07 13:48:57;;;;;;;10.50;2.58;;;19.50;98.10;;;;;;5150983;27;20051;-78
2023/08/07 13:51:44;;;;;;;11.27;2.80;;;19.50;98.20;;;;;;5150347;27;20068;-78
2023/08/07 13:54:30;;;;;;;12.35;2.30;;;19.40;98.90;;;;;;5150643;27;20054;-77
2023/08/07 13:57:16;;;;;;;8.70;2.33;;;20.00;98.40;;;;;;5151162;27;20153;-78
2023/08/07 14:00:02;;;;;;;7.90;2.75;;;21.00;97.10;;;;;;5150389;27;20051;-75
2023/08/07 14:02:48;;;;;;;9.20;2.15;;;21.40;96.00;;;;;;5150460;27;20039;-77
2023/08/07 14:05:34;;;;;;;11.70;2.30;;;22.20;94.30;;;;;;5150294;27;20154;-77
2023/08/07 14:08:21;;;;;;;12.57;2.35;;;22.60;93.00;;;;;;5135410;27;20533;-77
2023/08/07 14:11:07;;;;;;;5.90;1.90;;;22.50;93.40;;;;;;5131618;27;20039;-78
2023/08/07 14:13:53;;;;;;;7.45;2.30;;;23.10;92.80;;;;;;5115970;27;20058;-78
2023/08/07 14:16:39;;;;;;;7.80;2.10;;;22.60;92.00;;;;;;5110873;27;20050;-78
2023/08/07 14:19:25;;;;;;;13.30;2.60;;;22.60;92.70;;;;;;5131372;27;20123;-78
2023/08/07 14:22:11;;;;;;;7.85;1.88;;;23.00;92.80;;;;;;5130506;28;20051;-78